Time;durP1;ratioP1;P1;durP2;ratioP2;P2;SDS_P1;SDS_P2;PMS_P1;PMS_P2;Temp;Humidity;BMP_temperature;BMP_pressure;BME280_temperature;BME280_humidity;BME280_pressure;Samples;Min_cycle;Max_cycle;Signal;HPM_P1;HPM_P2
2022/12/03 00:00:11;;;;;;;15.63;8.75;;;;;;;4.68;78.34;99684.13;339373;29;1204;-70
2022/12/03 00:00:24;;;;;;;16.10;9.07;;;;;;;4.70;78.59;99683.25;340659;29;1367;-70
2022/12/03 00:00:36;;;;;;;17.13;9.38;;;;;;;4.75;78.05;99688.38;342027;28;1084;-73
2022/12/03 00:00:48;;;;;;;15.93;9.07;;;;;;;4.68;78.14;99677.25;340918;28;1890;-73
2022/12/03 00:01:00;;;;;;;15.15;9.00;;;;;;;4.71;78.40;99679.81;340309;29;1493;-73
2022/12/03 00:01:13;;;;;;;14.30;8.95;;;;;;;4.71;77.75;99682.38;340959;28;1221;-73
2022/12/03 00:01:25;;;;;;;15.15;9.25;;;;;;;4.70;78.13;99683.25;340880;29;1530;-71
2022/12/03 00:01:37;;;;;;;16.27;9.30;;;;;;;4.74;78.03;99690.06;340813;29;1124;-70
2022/12/03 00:01:49;;;;;;;15.48;8.98;;;;;;;4.68;78.06;99684.97;339904;29;1383;-70
2022/12/03 00:02:01;;;;;;;14.95;8.73;;;;;;;4.75;77.95;99681.50;338251;29;1167;-70
2022/12/03 00:02:13;;;;;;;15.38;8.98;;;;;;;4.76;78.22;99688.34;338581;29;1048;-70
2022/12/03 00:02:26;;;;;;;15.40;8.82;;;;;;;4.82;77.75;99681.44;338331;29;1360;-70
2022/12/03 00:02:38;;;;;;;14.95;8.57;;;;;;;4.83;77.85;99683.13;338649;29;1187;-70
2022/12/03 00:02:50;;;;;;;14.48;8.50;;;;;;;4.89;78.14;99685.66;340058;29;1048;-72
2022/12/03 00:03:03;;;;;;;14.25;8.50;;;;;;;4.89;78.24;99683.06;339768;29;1100;-73
2022/12/03 00:03:16;;;;;;;15.60;8.65;;;;;;;4.90;77.81;99680.50;336917;29;1330;-73
2022/12/03 00:03:29;;;;;;;16.13;8.95;;;;;;;4.94;78.04;99687.31;339016;29;1264;-73
2022/12/03 00:03:42;;;;;;;15.20;9.00;;;;;;;4.95;77.76;99689.03;340362;29;1097;-73
2022/12/03 00:03:54;;;;;;;14.07;8.63;;;;;;;4.97;77.84;99691.59;340695;29;1611;-73
2022/12/03 00:04:06;;;;;;;14.43;8.43;;;;;;;4.96;77.86;99684.75;339722;29;1040;-73
2022/12/03 00:04:19;;;;;;;15.07;8.75;;;;;;;4.96;78.26;99680.44;340547;28;1219;-73
2022/12/03 00:04:31;;;;;;;15.90;8.98;;;;;;;5.01;78.25;99688.13;342267;28;1189;-70
2022/12/03 00:04:42;;;;;;;15.65;8.77;;;;;;;4.98;78.14;99683.00;341581;28;2066;-71
2022/12/03 00:04:54;;;;;;;14.57;8.48;;;;;;;5.00;78.20;99687.25;341437;28;1662;-70
2022/12/03 00:05:07;;;;;;;14.73;8.55;;;;;;;5.04;78.42;99682.94;340561;29;1050;-72
2022/12/03 00:05:19;;;;;;;15.18;8.63;;;;;;;5.06;77.84;99681.22;342336;28;1224;-73
2022/12/03 00:05:31;;;;;;;14.65;8.38;;;;;;;5.07;78.06;99685.50;343239;28;1910;-73
2022/12/03 00:05:43;;;;;;;13.48;8.32;;;;;;;5.07;78.33;99687.19;343308;28;1340;-73
2022/12/03 00:06:00;;;;;;;13.77;8.40;;;;;;;5.06;77.93;99683.78;343474;28;1138;-73
2022/12/03 00:06:12;;;;;;;15.05;8.63;;;;;;;5.08;78.22;99692.34;341307;28;1886;-73
2022/12/03 00:06:24;;;;;;;16.98;8.77;;;;;;;5.08;78.31;99684.63;341396;28;1539;-71
2022/12/03 00:06:42;;;;;;;16.92;8.50;;;;;;;5.06;78.05;99686.34;341965;28;1280;-71
2022/12/03 00:06:54;;;;;;;15.82;8.70;;;;;;;5.07;78.49;99682.94;340015;29;1916;-71
2022/12/03 00:07:06;;;;;;;16.13;8.98;;;;;;;5.09;77.41;99685.47;340766;29;1132;-71
2022/12/03 00:07:18;;;;;;;15.75;8.93;;;;;;;5.07;77.72;99682.94;339890;29;1225;-71
2022/12/03 00:07:30;;;;;;;13.93;8.68;;;;;;;5.00;77.69;99691.56;340811;29;948;-73
2022/12/03 00:07:42;;;;;;;13.70;8.35;;;;;;;4.90;78.58;99680.50;340650;29;1174;-73
2022/12/03 00:07:54;;;;;;;15.40;8.50;;;;;;;4.87;78.02;99688.25;339616;29;1123;-73
2022/12/03 00:08:06;;;;;;;15.70;8.63;;;;;;;4.91;78.15;99686.50;341032;29;1347;-74
2022/12/03 00:08:18;;;;;;;15.07;9.00;;;;;;;4.93;78.53;99687.31;340137;28;1527;-73
2022/12/03 00:08:30;;;;;;;14.23;8.85;;;;;;;4.94;78.17;99691.63;340781;29;1064;-73
2022/12/03 00:08:42;;;;;;;14.52;9.00;;;;;;;4.89;78.40;99689.09;340782;29;1091;-70
2022/12/03 00:08:54;;;;;;;14.98;9.25;;;;;;;4.95;77.75;99683.03;340988;29;1091;-70
2022/12/03 00:09:06;;;;;;;15.07;9.13;;;;;;;4.94;78.03;99683.91;340986;29;1147;-70
2022/12/03 00:09:18;;;;;;;14.48;8.80;;;;;;;4.95;78.17;99690.75;341547;28;1398;-70
2022/12/03 00:09:30;;;;;;;13.40;8.55;;;;;;;4.92;78.08;99688.22;342807;28;1809;-70
2022/12/03 00:09:42;;;;;;;13.95;8.73;;;;;;;4.90;78.27;99684.78;342968;28;1716;-70
2022/12/03 00:09:54;;;;;;;13.90;8.57;;;;;;;4.91;78.03;99686.50;342003;28;1195;-73
2022/12/03 00:10:07;;;;;;;13.98;8.57;;;;;;;4.95;78.82;99683.03;342054;28;1131;-73
2022/12/03 00:10:19;;;;;;;13.70;8.68;;;;;;;4.94;78.58;99691.63;341611;28;1663;-74
2022/12/03 00:10:31;;;;;;;14.68;8.82;;;;;;;4.93;78.08;99685.63;341877;28;1743;-73
2022/12/03 00:10:43;;;;;;;14.82;8.77;;;;;;;4.91;78.16;99689.06;342278;28;1248;-73
2022/12/03 00:10:55;;;;;;;13.50;8.52;;;;;;;4.88;78.22;99686.53;342098;28;1187;-71
2022/12/03 00:11:07;;;;;;;14.18;8.57;;;;;;;4.79;78.13;99688.31;340851;29;1893;-71
2022/12/03 00:11:19;;;;;;;14.45;8.48;;;;;;;4.83;78.41;99686.59;341087;28;1324;-71
2022/12/03 00:11:32;;;;;;;14.77;8.75;;;;;;;4.87;78.61;99689.97;341847;28;1490;-70
2022/12/03 00:11:44;;;;;;;15.13;8.63;;;;;;;4.79;78.36;99690.06;340763;28;2071;-70
2022/12/03 00:11:56;;;;;;;15.52;8.52;;;;;;;4.84;78.31;99684.84;341474;28;1639;-70
2022/12/03 00:12:08;;;;;;;15.13;8.63;;;;;;;4.86;78.79;99683.97;340736;29;1158;-72
2022/12/03 00:12:20;;;;;;;15.00;8.70;;;;;;;4.84;77.80;99690.00;340029;29;1336;-73
2022/12/03 00:12:33;;;;;;;15.02;8.68;;;;;;;4.79;78.10;99687.47;338318;29;1056;-72
2022/12/03 00:12:45;;;;;;;16.48;9.02;;;;;;;4.71;78.19;99682.38;338930;29;1064;-73
2022/12/03 00:12:57;;;;;;;16.42;8.93;;;;;;;4.67;78.53;99688.44;339257;29;1207;-73
2022/12/03 00:13:09;;;;;;;16.38;8.98;;;;;;;4.69;77.92;99689.28;340248;29;1228;-73
2022/12/03 00:13:21;;;;;;;15.98;8.88;;;;;;;4.66;78.41;99686.72;341230;28;1181;-73
2022/12/03 00:13:33;;;;;;;15.82;8.88;;;;;;;4.64;78.90;99683.28;339748;29;1591;-70
2022/12/03 00:13:45;;;;;;;15.40;8.90;;;;;;;4.62;79.03;99684.19;339301;29;1891;-71
2022/12/03 00:13:57;;;;;;;15.27;8.83;;;;;;;4.65;79.59;99685.00;339550;29;1115;-71
2022/12/03 00:14:09;;;;;;;15.65;8.90;;;;;;;4.65;78.85;99685.00;342876;28;1634;-70
2022/12/03 00:14:21;;;;;;;15.10;8.85;;;;;;;4.69;78.78;99686.69;343212;28;1168;-70
2022/12/03 00:14:33;;;;;;;14.07;8.73;;;;;;;4.71;78.87;99687.53;343271;28;1059;-73
2022/12/03 00:14:49;;;;;;;15.30;8.82;;;;;;;4.74;79.47;99689.22;340676;29;1059;-73
2022/12/03 00:15:01;;;;;;;17.05;9.02;;;;;;;4.75;78.90;99686.66;341057;28;1197;-73
2022/12/03 00:15:13;;;;;;;15.93;8.73;;;;;;;4.77;78.58;99682.34;339906;28;1779;-73
2022/12/03 00:15:25;;;;;;;14.38;8.52;;;;;;;4.78;78.54;99686.59;341594;28;1935;-70
2022/12/03 00:15:37;;;;;;;13.52;8.48;;;;;;;4.79;78.95;99687.47;341603;28;1836;-70
2022/12/03 00:15:49;;;;;;;14.53;8.60;;;;;;;4.82;78.95;99690.00;341076;28;1612;-70
2022/12/03 00:16:02;;;;;;;14.70;8.52;;;;;;;4.78;78.77;99689.19;341260;28;1762;-70
2022/12/03 00:16:14;;;;;;;14.77;8.48;;;;;;;4.76;78.90;99687.50;341253;28;1858;-71
2022/12/03 00:16:27;;;;;;;15.45;8.65;;;;;;;4.73;78.63;99688.38;340577;29;1170;-70
2022/12/03 00:16:39;;;;;;;15.02;8.90;;;;;;;4.73;78.98;99685.81;340097;29;2151;-73
2022/12/03 00:16:51;;;;;;;14.20;8.90;;;;;;;4.75;78.97;99690.94;340309;29;1333;-73
2022/12/03 00:17:03;;;;;;;13.77;8.60;;;;;;;4.66;78.98;99681.56;338157;29;1815;-73
2022/12/03 00:17:15;;;;;;;14.73;8.80;;;;;;;4.66;79.37;99686.72;339146;29;1061;-73
2022/12/03 00:17:27;;;;;;;15.90;9.05;;;;;;;4.51;78.79;99686.84;337430;28;3279;-73
2022/12/03 00:17:39;;;;;;;15.98;9.05;;;;;;;4.50;78.74;99690.25;340139;28;3388;-72
2022/12/03 00:17:51;;;;;;;16.25;9.18;;;;;;;4.37;79.12;99695.50;340067;29;2380;-70
2022/12/03 00:18:03;;;;;;;16.08;9.27;;;;;;;4.37;79.26;99686.94;341507;28;1119;-70
2022/12/03 00:18:15;;;;;;;16.33;8.80;;;;;;;4.45;79.83;99690.31;341485;28;2300;-70
2022/12/03 00:18:28;;;;;;;15.18;8.50;;;;;;;4.46;79.64;99691.16;340803;29;1257;-70
2022/12/03 00:18:40;;;;;;;15.48;8.70;;;;;;;4.46;80.23;99692.00;339947;29;1709;-70
2022/12/03 00:18:52;;;;;;;15.40;9.07;;;;;;;4.50;80.10;99679.97;341016;29;1505;-70
2022/12/03 00:19:06;;;;;;;14.55;8.98;;;;;;;4.54;79.77;99684.22;340968;29;1101;-73
2022/12/03 00:19:18;;;;;;;14.65;9.35;;;;;;;4.43;80.27;99688.59;340910;28;1518;-73
2022/12/03 00:19:30;;;;;;;14.65;9.23;;;;;;;4.44;80.04;99690.31;340732;29;2971;-73
2022/12/03 00:19:42;;;;;;;13.63;8.85;;;;;;;4.38;80.38;99686.91;341263;28;1051;-73
2022/12/03 00:19:54;;;;;;;14.02;8.75;;;;;;;4.43;80.73;99688.59;341033;29;1305;-73
2022/12/03 00:20:07;;;;;;;14.38;8.50;;;;;;;4.44;80.06;99685.16;340648;28;1928;-73
2022/12/03 00:20:22;;;;;;;14.80;8.90;;;;;;;4.46;80.49;99689.44;341472;28;1330;-72
2022/12/03 00:20:34;;;;;;;15.75;9.10;;;;;;;4.49;80.18;99683.44;340876;29;1059;-73
2022/12/03 00:20:46;;;;;;;16.65;9.15;;;;;;;4.52;80.28;99688.53;340621;29;1987;-73
2022/12/03 00:20:58;;;;;;;15.98;8.93;;;;;;;4.56;80.12;99690.22;340966;29;1075;-73
2022/12/03 00:21:10;;;;;;;15.07;8.45;;;;;;;4.59;80.23;99685.91;341727;28;1040;-73
2022/12/03 00:21:22;;;;;;;15.75;8.50;;;;;;;4.61;79.66;99683.31;342938;28;1369;-73
2022/12/03 00:21:35;;;;;;;15.60;8.65;;;;;;;4.63;79.47;99684.16;342251;28;1563;-73
2022/12/03 00:21:47;;;;;;;14.48;8.63;;;;;;;4.66;79.99;99686.72;341303;28;1832;-73
2022/12/03 00:21:59;;;;;;;13.70;8.85;;;;;;;4.69;79.74;99691.84;341934;28;1332;-73
2022/12/03 00:22:11;;;;;;;14.30;9.30;;;;;;;4.68;79.82;99679.81;343701;28;982;-72
2022/12/03 00:22:23;;;;;;;15.50;9.50;;;;;;;4.66;80.09;99686.72;343096;28;1200;-73
2022/12/03 00:22:35;;;;;;;16.58;9.70;;;;;;;4.69;79.37;99686.69;340933;28;1310;-70
2022/12/03 00:22:48;;;;;;;16.55;9.55;;;;;;;4.72;79.68;99681.50;342196;28;1228;-70
2022/12/03 00:23:00;;;;;;;17.00;9.60;;;;;;;4.74;79.83;99684.91;342108;28;1270;-70
2022/12/03 00:23:12;;;;;;;16.88;9.45;;;;;;;4.76;79.13;99688.34;342427;28;1087;-70
2022/12/03 00:23:24;;;;;;;14.77;8.82;;;;;;;4.74;79.37;99686.66;344366;28;1178;-70
2022/12/03 00:23:36;;;;;;;14.80;8.73;;;;;;;4.77;79.63;99684.91;342765;28;3587;-70
2022/12/03 00:23:53;;;;;;;15.30;8.95;;;;;;;4.80;79.39;99687.44;342587;28;1967;-73
2022/12/03 00:24:05;;;;;;;14.88;9.00;;;;;;;4.82;79.12;99684.00;342447;28;967;-73
2022/12/03 00:24:17;;;;;;;14.93;9.00;;;;;;;4.84;79.57;99687.44;341559;28;1386;-73
2022/12/03 00:24:30;;;;;;;15.95;9.10;;;;;;;4.85;78.73;99687.44;342216;28;1245;-73
2022/12/03 00:24:42;;;;;;;16.33;9.38;;;;;;;4.88;78.74;99681.38;342101;28;1318;-72
2022/12/03 00:24:54;;;;;;;15.45;9.15;;;;;;;4.88;78.57;99686.53;342207;28;1036;-70
2022/12/03 00:25:07;;;;;;;14.68;8.90;;;;;;;4.89;78.79;99688.22;340754;28;1759;-70
2022/12/03 00:25:19;;;;;;;14.98;8.80;;;;;;;4.89;78.65;99683.06;341402;28;1484;-70
2022/12/03 00:25:31;;;;;;;14.45;8.55;;;;;;;4.93;79.00;99687.31;340552;29;1395;-70
2022/12/03 00:25:43;;;;;;;14.57;8.57;;;;;;;4.92;77.97;99688.22;339143;29;1328;-71
2022/12/03 00:25:55;;;;;;;14.52;8.73;;;;;;;4.92;78.74;99677.91;339651;29;1210;-71
2022/12/03 00:26:07;;;;;;;14.75;8.73;;;;;;;4.93;78.76;99684.75;336932;29;1890;-72
2022/12/03 00:26:19;;;;;;;14.52;8.73;;;;;;;4.95;78.84;99690.75;338138;29;1824;-72
2022/12/03 00:26:31;;;;;;;14.95;8.85;;;;;;;4.97;78.61;99681.28;341000;29;1084;-72
2022/12/03 00:26:43;;;;;;;14.93;8.70;;;;;;;4.97;78.55;99687.31;340787;29;1896;-72
2022/12/03 00:26:55;;;;;;;13.88;8.52;;;;;;;5.00;78.55;99687.25;338503;29;1103;-72
2022/12/03 00:27:07;;;;;;;13.65;8.55;;;;;;;5.01;78.83;99690.72;338511;29;1197;-72
2022/12/03 00:27:19;;;;;;;14.13;8.55;;;;;;;5.03;78.64;99683.81;340405;28;1889;-72
2022/12/03 00:27:31;;;;;;;15.18;8.90;;;;;;;5.05;78.14;99683.78;342115;28;1047;-72
2022/12/03 00:27:43;;;;;;;14.82;8.70;;;;;;;5.04;78.60;99682.94;342266;28;1004;-72
2022/12/03 00:27:55;;;;;;;15.30;8.73;;;;;;;5.07;78.61;99688.09;342265;28;1085;-72
2022/12/03 00:28:07;;;;;;;14.95;8.65;;;;;;;5.06;77.71;99688.09;342556;28;947;-72
2022/12/03 00:28:19;;;;;;;15.00;8.75;;;;;;;5.07;78.41;99688.09;341120;28;1723;-72
2022/12/03 00:28:31;;;;;;;14.85;8.60;;;;;;;5.07;77.71;99682.94;340707;29;1204;-72
2022/12/03 00:28:43;;;;;;;15.05;8.90;;;;;;;5.11;78.26;99683.72;340948;28;1831;-72
2022/12/03 00:28:56;;;;;;;15.00;8.93;;;;;;;5.11;77.86;99682.03;340693;29;1071;-72
2022/12/03 00:29:08;;;;;;;15.35;8.95;;;;;;;5.13;77.66;99685.44;340753;29;1075;-72
2022/12/03 00:29:20;;;;;;;14.20;8.65;;;;;;;5.06;77.39;99686.34;341071;28;1939;-72
2022/12/03 00:29:32;;;;;;;13.85;8.57;;;;;;;4.97;77.75;99686.44;341847;28;1635;-73
2022/12/03 00:29:44;;;;;;;13.60;8.48;;;;;;;4.93;77.92;99679.59;340333;29;1254;-72
2022/12/03 00:29:56;;;;;;;13.27;8.60;;;;;;;4.94;77.86;99682.16;341386;28;1087;-72
2022/12/03 00:30:09;;;;;;;13.25;8.73;;;;;;;4.97;78.16;99686.44;341655;28;1781;-72
2022/12/03 00:30:21;;;;;;;13.73;8.65;;;;;;;4.98;77.77;99678.69;340486;28;1774;-72
2022/12/03 00:30:33;;;;;;;14.88;8.52;;;;;;;5.02;78.51;99681.25;340519;28;1677;-72
2022/12/03 00:30:46;;;;;;;15.70;8.85;;;;;;;5.05;78.26;99687.25;342362;28;1211;-72
2022/12/03 00:30:58;;;;;;;14.70;8.93;;;;;;;5.03;78.10;99682.94;341883;28;1271;-72
2022/12/03 00:31:10;;;;;;;14.40;8.43;;;;;;;5.00;78.36;99681.25;340615;29;1095;-72
2022/12/03 00:31:23;;;;;;;14.98;8.57;;;;;;;5.01;78.28;99683.00;341769;28;1279;-72
2022/12/03 00:31:35;;;;;;;16.88;8.90;;;;;;;5.04;78.41;99682.94;340223;29;1967;-73
2022/12/03 00:31:48;;;;;;;17.15;8.93;;;;;;;5.02;77.92;99682.09;341595;28;1362;-72
2022/12/03 00:31:59;;;;;;;15.88;8.82;;;;;;;4.80;77.97;99679.72;340207;29;1901;-72
2022/12/03 00:32:13;;;;;;;15.60;9.07;;;;;;;4.64;78.71;99683.28;340812;29;1088;-72
2022/12/03 00:32:25;;;;;;;14.75;8.70;;;;;;;4.69;78.72;99681.53;339866;28;1547;-72
2022/12/03 00:32:37;;;;;;;14.75;8.82;;;;;;;4.74;79.14;99684.91;339637;29;1934;-72
2022/12/03 00:32:48;;;;;;;14.50;9.05;;;;;;;4.72;79.38;99685.81;340394;29;1627;-72
2022/12/03 00:33:01;;;;;;;14.45;8.85;;;;;;;4.71;78.95;99679.81;340877;29;1032;-72
2022/12/03 00:33:13;;;;;;;15.27;9.10;;;;;;;4.74;79.37;99678.91;340643;28;2021;-72
2022/12/03 00:33:25;;;;;;;15.27;9.02;;;;;;;4.78;79.14;99681.44;341295;28;1850;-71
2022/12/03 00:33:37;;;;;;;14.13;8.82;;;;;;;4.70;78.52;99683.25;342032;28;1445;-70
2022/12/03 00:33:51;;;;;;;14.60;8.90;;;;;;;4.58;79.00;99683.34;339762;29;1852;-70
2022/12/03 00:34:03;;;;;;;16.63;9.43;;;;;;;4.61;78.99;99678.19;341238;28;1248;-70
2022/12/03 00:34:15;;;;;;;16.40;9.50;;;;;;;4.66;79.36;99678.97;342085;28;1040;-70
2022/12/03 00:34:27;;;;;;;17.40;9.25;;;;;;;4.68;79.37;99682.41;340626;29;1081;-70
2022/12/03 00:34:39;;;;;;;17.75;9.35;;;;;;;4.71;78.80;99678.94;340448;29;1108;-70
2022/12/03 00:34:51;;;;;;;17.08;9.27;;;;;;;4.69;79.23;99681.53;340499;28;1810;-72
2022/12/03 00:35:03;;;;;;;16.20;9.35;;;;;;;4.67;79.01;99675.56;341247;28;1801;-72
2022/12/03 00:35:15;;;;;;;15.30;9.25;;;;;;;4.67;79.29;99679.81;343127;28;1423;-72
2022/12/03 00:35:27;;;;;;;15.20;9.20;;;;;;;4.71;78.84;99682.38;341456;28;2238;-72
2022/12/03 00:35:39;;;;;;;15.98;9.45;;;;;;;4.73;79.12;99683.22;340805;28;2445;-73
2022/12/03 00:35:51;;;;;;;17.10;9.18;;;;;;;4.75;78.34;99678.91;342224;28;2051;-72
2022/12/03 00:36:04;;;;;;;17.27;9.25;;;;;;;4.77;78.77;99684.91;342318;28;1063;-72
2022/12/03 00:36:16;;;;;;;16.17;8.93;;;;;;;4.81;79.01;99685.75;342141;28;1212;-72
2022/12/03 00:36:28;;;;;;;14.75;8.98;;;;;;;4.82;78.68;99682.28;343388;28;1878;-72
2022/12/03 00:36:40;;;;;;;14.95;8.63;;;;;;;4.84;79.07;99679.69;343572;28;1074;-72
2022/12/03 00:36:52;;;;;;;15.52;8.63;;;;;;;4.88;79.07;99681.38;342631;28;1834;-72
2022/12/03 00:37:04;;;;;;;15.18;8.60;;;;;;;4.82;79.31;99677.13;342749;28;1848;-72
2022/12/03 00:37:16;;;;;;;14.77;8.70;;;;;;;4.82;78.89;99684.84;340762;28;1837;-72
2022/12/03 00:37:28;;;;;;;15.80;9.10;;;;;;;4.82;79.02;99686.59;341752;28;1338;-72
2022/12/03 00:37:40;;;;;;;16.65;9.23;;;;;;;4.82;78.88;99679.72;342046;28;1052;-72
2022/12/03 00:37:52;;;;;;;17.50;9.43;;;;;;;4.82;78.67;99677.13;342087;28;1027;-73
2022/12/03 00:38:04;;;;;;;15.68;8.93;;;;;;;4.84;78.53;99684.84;341566;28;1667;-72
2022/12/03 00:38:17;;;;;;;14.35;8.70;;;;;;;4.86;77.99;99683.13;341659;28;1745;-72
2022/12/03 00:38:29;;;;;;;14.88;8.70;;;;;;;4.83;78.91;99683.13;340892;28;1745;-72
2022/12/03 00:38:41;;;;;;;15.10;8.77;;;;;;;4.84;78.71;99679.69;340147;29;1223;-72
2022/12/03 00:38:53;;;;;;;14.38;8.63;;;;;;;4.84;78.69;99675.41;341147;28;1773;-72
2022/12/03 00:39:05;;;;;;;14.55;8.77;;;;;;;4.88;78.31;99677.06;342231;28;1285;-73
2022/12/03 00:39:16;;;;;;;16.45;9.65;;;;;;;4.90;78.45;99677.06;341915;28;1586;-72
2022/12/03 00:39:29;;;;;;;16.35;9.38;;;;;;;4.91;77.99;99677.06;343392;28;1184;-72
2022/12/03 00:39:41;;;;;;;15.70;9.00;;;;;;;4.94;78.04;99681.31;342147;28;1157;-72
2022/12/03 00:39:53;;;;;;;15.60;8.70;;;;;;;4.94;78.39;99681.31;342064;28;1157;-72
2022/12/03 00:40:06;;;;;;;15.45;8.65;;;;;;;4.96;78.26;99677.84;342360;28;771;-72
2022/12/03 00:40:18;;;;;;;15.80;8.75;;;;;;;4.98;78.12;99680.44;340531;28;1869;-72
2022/12/03 00:40:30;;;;;;;16.20;8.93;;;;;;;4.92;77.84;99683.06;340074;29;1653;-72
2022/12/03 00:40:42;;;;;;;15.77;8.85;;;;;;;4.94;78.13;99681.31;339265;29;1127;-72
2022/12/03 00:40:54;;;;;;;15.25;8.65;;;;;;;4.89;78.54;99676.22;338311;29;1129;-72
2022/12/03 00:41:06;;;;;;;14.13;8.48;;;;;;;4.90;78.70;99685.66;338469;29;1047;-72
2022/12/03 00:41:18;;;;;;;14.68;8.40;;;;;;;4.89;77.85;99683.06;336912;29;1778;-73
2022/12/03 00:41:30;;;;;;;14.15;8.32;;;;;;;4.92;78.44;99677.91;335602;29;1080;-72
2022/12/03 00:41:42;;;;;;;14.52;8.57;;;;;;;4.84;78.07;99674.56;336116;29;729;-72
2022/12/03 00:41:54;;;;;;;14.73;8.60;;;;;;;4.76;78.50;99680.59;337294;29;1040;-72
2022/12/03 00:42:06;;;;;;;15.60;8.65;;;;;;;4.80;78.28;99679.72;338496;29;736;-72
2022/12/03 00:42:18;;;;;;;14.57;8.45;;;;;;;4.82;78.17;99681.44;340201;28;1182;-72
2022/12/03 00:42:30;;;;;;;14.63;8.77;;;;;;;4.85;78.20;99681.41;340165;28;1785;-73
2022/12/03 00:42:42;;;;;;;13.90;8.90;;;;;;;4.83;78.72;99678.84;340788;28;1584;-73
2022/12/03 00:42:54;;;;;;;14.07;8.90;;;;;;;4.85;78.88;99683.97;340958;28;1502;-72
2022/12/03 00:43:06;;;;;;;13.52;8.43;;;;;;;4.86;78.69;99678.81;340129;28;1899;-73
2022/12/03 00:43:18;;;;;;;13.40;8.27;;;;;;;4.88;78.70;99677.06;340299;28;1471;-73
2022/12/03 00:43:30;;;;;;;14.45;8.55;;;;;;;4.89;78.97;99672.78;343209;28;1776;-72
2022/12/03 00:43:42;;;;;;;15.43;8.73;;;;;;;4.90;78.46;99679.66;340790;29;1078;-72
2022/12/03 00:43:56;;;;;;;15.32;8.57;;;;;;;4.90;78.89;99674.50;339600;29;1122;-72
2022/12/03 00:44:09;;;;;;;15.93;8.63;;;;;;;4.79;78.74;99678.03;339188;29;1185;-72
2022/12/03 00:44:21;;;;;;;17.58;8.80;;;;;;;4.77;79.01;99681.50;340626;28;1298;-72
2022/12/03 00:44:33;;;;;;;16.92;9.13;;;;;;;4.79;78.90;99680.59;341887;28;1207;-73
2022/12/03 00:44:45;;;;;;;16.42;9.13;;;;;;;4.78;78.30;99676.31;339853;29;1836;-73
2022/12/03 00:44:57;;;;;;;16.30;9.05;;;;;;;4.80;78.63;99679.72;340315;28;1753;-73
2022/12/03 00:45:10;;;;;;;15.75;8.90;;;;;;;4.82;78.47;99682.28;340706;28;1830;-72
2022/12/03 00:45:22;;;;;;;15.20;8.82;;;;;;;4.86;78.20;99677.97;342555;28;1212;-72
2022/12/03 00:45:34;;;;;;;14.82;8.70;;;;;;;4.88;78.76;99679.66;340051;28;1936;-72
2022/12/03 00:45:46;;;;;;;15.18;8.85;;;;;;;4.88;78.35;99683.97;339724;29;1758;-72
2022/12/03 00:45:58;;;;;;;16.58;9.65;;;;;;;4.91;79.03;99686.50;341383;28;1567;-72
2022/12/03 00:46:10;;;;;;;16.35;9.32;;;;;;;4.94;78.80;99673.59;341900;28;1088;-72
2022/12/03 00:46:26;;;;;;;13.98;8.30;;;;;;;4.96;78.48;99675.28;340832;28;2187;-73
2022/12/03 00:46:38;;;;;;;13.68;8.60;;;;;;;4.95;78.27;99683.03;341644;28;1684;-72
2022/12/03 00:46:50;;;;;;;15.25;9.05;;;;;;;4.86;78.59;99683.13;341376;28;1885;-72
2022/12/03 00:47:03;;;;;;;15.70;9.13;;;;;;;4.91;78.04;99681.34;341740;28;1743;-72
2022/12/03 00:47:15;;;;;;;15.32;8.85;;;;;;;4.92;78.30;99680.50;342063;28;936;-73
2022/12/03 00:47:27;;;;;;;14.37;8.60;;;;;;;4.93;78.61;99679.59;339236;29;1664;-72
2022/12/03 00:47:39;;;;;;;14.45;8.35;;;;;;;4.95;78.13;99683.91;340606;29;774;-72
2022/12/03 00:47:51;;;;;;;14.82;8.18;;;;;;;4.94;78.10;99682.16;340440;28;1861;-72
2022/12/03 00:48:03;;;;;;;15.15;8.32;;;;;;;4.98;78.09;99683.84;341219;28;1891;-72
2022/12/03 00:48:15;;;;;;;14.25;8.35;;;;;;;5.00;78.34;99683.84;340733;29;1095;-72
2022/12/03 00:48:28;;;;;;;13.48;8.23;;;;;;;5.00;77.74;99682.09;339923;29;1203;-73
2022/12/03 00:48:39;;;;;;;14.20;8.40;;;;;;;5.02;77.95;99678.69;339473;28;1648;-73
2022/12/03 00:48:52;;;;;;;14.60;8.68;;;;;;;5.00;78.09;99676.13;341794;28;1620;-72
2022/12/03 00:49:04;;;;;;;13.98;8.52;;;;;;;5.00;78.41;99686.41;341569;28;1119;-72
2022/12/03 00:49:16;;;;;;;14.52;8.95;;;;;;;5.02;78.69;99682.09;342295;28;1256;-72
2022/12/03 00:49:28;;;;;;;15.25;9.35;;;;;;;5.03;78.29;99686.41;343894;28;964;-72
2022/12/03 00:49:40;;;;;;;15.18;9.25;;;;;;;5.01;78.10;99677.84;344748;28;1323;-72
2022/12/03 00:49:52;;;;;;;14.82;8.77;;;;;;;5.01;78.52;99683.00;340985;28;1695;-73
2022/12/03 00:50:05;;;;;;;15.80;8.50;;;;;;;5.03;78.13;99686.41;341821;28;1730;-72
2022/12/03 00:50:17;;;;;;;16.63;8.73;;;;;;;5.01;78.00;99683.00;340799;28;1197;-72
2022/12/03 00:50:29;;;;;;;17.25;9.05;;;;;;;5.02;77.57;99679.53;340631;28;1739;-72
2022/12/03 00:50:41;;;;;;;15.73;8.85;;;;;;;4.79;77.71;99678.03;340657;28;1085;-73
2022/12/03 00:50:53;;;;;;;14.50;8.43;;;;;;;4.84;77.75;99684.84;339923;29;1224;-72
2022/12/03 00:51:05;;;;;;;15.10;8.80;;;;;;;4.87;77.99;99680.53;340971;29;1086;-72
2022/12/03 00:51:18;;;;;;;14.98;9.10;;;;;;;4.89;78.07;99686.53;340162;28;1777;-73
2022/12/03 00:51:30;;;;;;;16.30;9.38;;;;;;;4.82;77.68;99686.59;340524;29;1116;-72
2022/12/03 00:51:42;;;;;;;15.75;9.15;;;;;;;4.91;77.79;99683.91;340477;29;1248;-72
2022/12/03 00:51:54;;;;;;;15.00;9.00;;;;;;;4.81;77.87;99683.16;340974;28;1244;-73
2022/12/03 00:52:06;;;;;;;15.02;9.00;;;;;;;4.87;78.49;99685.69;341903;28;1611;-72
2022/12/03 00:52:18;;;;;;;15.80;9.32;;;;;;;4.89;78.17;99685.66;341949;28;1802;-72
2022/12/03 00:52:30;;;;;;;15.88;9.07;;;;;;;4.90;78.54;99684.78;343761;28;1525;-72
2022/12/03 00:52:42;;;;;;;16.00;9.10;;;;;;;4.91;78.58;99686.50;343567;28;1070;-72
2022/12/03 00:52:54;;;;;;;15.55;8.82;;;;;;;4.92;77.74;99688.22;342239;28;1254;-73
2022/12/03 00:53:06;;;;;;;15.25;8.52;;;;;;;4.93;77.73;99687.31;341494;28;1793;-72
2022/12/03 00:53:18;;;;;;;14.65;8.40;;;;;;;4.95;77.95;99685.59;343372;28;1320;-72
2022/12/03 00:53:30;;;;;;;16.13;8.65;;;;;;;4.95;78.21;99683.91;343471;28;1066;-72
2022/12/03 00:53:42;;;;;;;16.27;9.10;;;;;;;4.97;78.32;99681.28;341907;28;2014;-72
2022/12/03 00:53:54;;;;;;;16.48;8.93;;;;;;;4.86;77.70;99685.69;340226;28;3838;-72
2022/12/03 00:54:07;;;;;;;16.17;8.82;;;;;;;4.83;78.41;99685.72;341258;28;1674;-73
2022/12/03 00:54:19;;;;;;;15.52;8.85;;;;;;;4.83;78.74;99677.97;342598;28;1317;-72
2022/12/03 00:54:31;;;;;;;14.27;8.75;;;;;;;4.80;78.18;99679.72;340919;28;2619;-73
2022/12/03 00:54:44;;;;;;;14.38;8.55;;;;;;;4.87;77.93;99689.97;341245;29;1030;-72
2022/12/03 00:54:56;;;;;;;14.60;8.82;;;;;;;4.82;78.29;99682.28;340998;29;1072;-72
2022/12/03 00:55:08;;;;;;;15.25;8.55;;;;;;;4.77;78.18;99687.47;341372;29;731;-72
2022/12/03 00:55:20;;;;;;;15.52;8.50;;;;;;;4.82;78.52;99684.84;342392;28;1256;-73
2022/12/03 00:55:32;;;;;;;16.23;8.75;;;;;;;4.79;78.19;99688.31;340961;28;1781;-73
2022/12/03 00:55:44;;;;;;;15.15;8.70;;;;;;;4.83;78.15;99685.72;340858;29;1351;-72
2022/12/03 00:55:56;;;;;;;14.65;8.40;;;;;;;4.83;77.92;99689.16;341108;29;1062;-73
2022/12/03 00:56:08;;;;;;;14.27;8.32;;;;;;;4.85;78.42;99686.53;341563;28;1052;-73
2022/12/03 00:56:20;;;;;;;14.98;8.70;;;;;;;4.84;77.90;99690.84;342693;28;1735;-72
2022/12/03 00:56:32;;;;;;;14.77;8.88;;;;;;;4.87;78.43;99688.25;340605;28;2024;-72
2022/12/03 00:56:44;;;;;;;15.45;8.63;;;;;;;4.91;78.33;99682.22;341529;28;1644;-72
2022/12/03 00:56:56;;;;;;;14.63;8.38;;;;;;;4.94;78.19;99689.06;340943;29;1227;-72
2022/12/03 00:57:09;;;;;;;14.00;8.52;;;;;;;4.72;77.80;99680.66;340753;28;1667;-72
2022/12/03 00:57:21;;;;;;;15.20;9.02;;;;;;;4.72;78.30;99686.66;342135;28;1299;-72
2022/12/03 00:57:33;;;;;;;14.45;8.65;;;;;;;4.74;78.40;99681.50;343765;28;1093;-70
2022/12/03 00:57:45;;;;;;;14.35;8.40;;;;;;;4.74;78.98;99684.91;341149;28;1461;-70
2022/12/03 00:57:58;;;;;;;15.45;8.95;;;;;;;4.75;78.46;99691.78;341129;29;1346;-70
2022/12/03 00:58:10;;;;;;;15.35;8.95;;;;;;;4.79;79.00;99682.31;341125;29;1150;-70
2022/12/03 00:58:22;;;;;;;15.35;8.80;;;;;;;4.79;78.77;99678.03;342378;28;1351;-70
2022/12/03 00:58:35;;;;;;;15.88;8.90;;;;;;;4.84;79.08;99684.84;340478;28;1786;-73
2022/12/03 00:58:47;;;;;;;16.60;9.43;;;;;;;4.87;78.50;99684.81;341259;29;1143;-72
2022/12/03 00:58:59;;;;;;;17.08;9.65;;;;;;;4.88;78.63;99686.53;341075;29;1019;-72
2022/12/03 00:59:11;;;;;;;14.32;8.80;;;;;;;4.89;78.25;99678.81;340663;29;1256;-72